sensor_id;sensor_type;location;lat;lon;timestamp;P1;durP1;ratioP1;P2;durP2;ratioP2
81811;SDS011;71243;51.848;5.768;2023-07-20T00:01:13;11.10;;;5.05;;
81811;SDS011;71243;51.848;5.768;2023-07-20T00:03:39;9.55;;;5.22;;
81811;SDS011;71243;51.848;5.768;2023-07-20T00:06:04;11.52;;;5.63;;
81811;SDS011;71243;51.848;5.768;2023-07-20T00:08:29;11.02;;;5.38;;
81811;SDS011;71243;51.848;5.768;2023-07-20T00:10:55;14.07;;;5.80;;
81811;SDS011;71243;51.848;5.768;2023-07-20T00:13:20;12.27;;;5.00;;
81811;SDS011;71243;51.848;5.768;2023-07-20T00:15:45;11.85;;;5.90;;
81811;SDS011;71243;51.848;5.768;2023-07-20T00:18:11;12.97;;;5.37;;
81811;SDS011;71243;51.848;5.768;2023-07-20T00:20:36;12.67;;;5.97;;
81811;SDS011;71243;51.848;5.768;2023-07-20T00:23:01;13.95;;;6.43;;
81811;SDS011;71243;51.848;5.768;2023-07-20T00:25:26;11.77;;;5.85;;
81811;SDS011;71243;51.848;5.768;2023-07-20T00:27:52;10.93;;;5.75;;
81811;SDS011;71243;51.848;5.768;2023-07-20T00:30:17;12.63;;;5.80;;
81811;SDS011;71243;51.848;5.768;2023-07-20T00:32:43;10.10;;;5.68;;
81811;SDS011;71243;51.848;5.768;2023-07-20T00:35:08;12.73;;;5.67;;
81811;SDS011;71243;51.848;5.768;2023-07-20T00:37:34;12.75;;;5.45;;
81811;SDS011;71243;51.848;5.768;2023-07-20T00:39:59;10.85;;;5.60;;
81811;SDS011;71243;51.848;5.768;2023-07-20T00:42:24;10.63;;;5.28;;
81811;SDS011;71243;51.848;5.768;2023-07-20T00:44:50;10.48;;;5.45;;
81811;SDS011;71243;51.848;5.768;2023-07-20T00:47:15;12.33;;;5.43;;
81811;SDS011;71243;51.848;5.768;2023-07-20T00:49:40;11.45;;;5.18;;
81811;SDS011;71243;51.848;5.768;2023-07-20T00:52:06;10.95;;;5.40;;
81811;SDS011;71243;51.848;5.768;2023-07-20T00:54:32;10.75;;;4.97;;
81811;SDS011;71243;51.848;5.768;2023-07-20T00:56:58;10.93;;;5.63;;
81811;SDS011;71243;51.848;5.768;2023-07-20T00:59:25;10.52;;;5.28;;
81811;SDS011;71243;51.848;5.768;2023-07-20T01:01:51;10.18;;;5.30;;
81811;SDS011;71243;51.848;5.768;2023-07-20T01:04:16;10.27;;;5.32;;
81811;SDS011;71243;51.848;5.768;2023-07-20T01:06:45;11.05;;;5.28;;
81811;SDS011;71243;51.848;5.768;2023-07-20T01:09:26;11.48;;;5.22;;
81811;SDS011;71243;51.848;5.768;2023-07-20T01:12:05;10.43;;;5.68;;
81811;SDS011;71243;51.848;5.768;2023-07-20T01:14:34;12.07;;;5.25;;
81811;SDS011;71243;51.848;5.768;2023-07-20T01:16:59;8.68;;;4.47;;
81811;SDS011;71243;51.848;5.768;2023-07-20T01:19:24;9.95;;;5.30;;
81811;SDS011;71243;51.848;5.768;2023-07-20T01:28:03;8.90;;;4.30;;
81811;SDS011;71243;51.848;5.768;2023-07-20T01:32:47;8.98;;;4.15;;
81811;SDS011;71243;51.848;5.768;2023-07-20T01:35:13;10.30;;;4.32;;
81811;SDS011;71243;51.848;5.768;2023-07-20T01:37:41;11.15;;;4.70;;
81811;SDS011;71243;51.848;5.768;2023-07-20T01:40:08;9.57;;;4.38;;
81811;SDS011;71243;51.848;5.768;2023-07-20T01:42:35;10.15;;;4.57;;
81811;SDS011;71243;51.848;5.768;2023-07-20T01:45:01;9.65;;;4.53;;
81811;SDS011;71243;51.848;5.768;2023-07-20T01:47:26;8.10;;;4.17;;
81811;SDS011;71243;51.848;5.768;2023-07-20T01:49:51;9.20;;;4.60;;
81811;SDS011;71243;51.848;5.768;2023-07-20T01:52:16;13.88;;;4.63;;
81811;SDS011;71243;51.848;5.768;2023-07-20T01:54:41;9.40;;;4.43;;
81811;SDS011;71243;51.848;5.768;2023-07-20T01:57:07;8.30;;;4.28;;
81811;SDS011;71243;51.848;5.768;2023-07-20T01:59:32;8.85;;;4.70;;
81811;SDS011;71243;51.848;5.768;2023-07-20T02:01:57;8.33;;;4.40;;
81811;SDS011;71243;51.848;5.768;2023-07-20T02:04:22;7.32;;;3.42;;
81811;SDS011;71243;51.848;5.768;2023-07-20T02:06:48;7.00;;;3.30;;
81811;SDS011;71243;51.848;5.768;2023-07-20T02:09:13;6.53;;;2.67;;
81811;SDS011;71243;51.848;5.768;2023-07-20T02:11:38;6.27;;;2.67;;
81811;SDS011;71243;51.848;5.768;2023-07-20T02:14:03;5.87;;;2.23;;
81811;SDS011;71243;51.848;5.768;2023-07-20T02:16:28;6.30;;;2.30;;
81811;SDS011;71243;51.848;5.768;2023-07-20T02:18:54;5.87;;;2.33;;
81811;SDS011;71243;51.848;5.768;2023-07-20T02:21:19;7.20;;;2.57;;
81811;SDS011;71243;51.848;5.768;2023-07-20T02:23:45;6.70;;;2.35;;
81811;SDS011;71243;51.848;5.768;2023-07-20T02:26:10;5.93;;;2.15;;
81811;SDS011;71243;51.848;5.768;2023-07-20T02:28:35;5.80;;;2.03;;
81811;SDS011;71243;51.848;5.768;2023-07-20T02:31:00;6.27;;;2.20;;
81811;SDS011;71243;51.848;5.768;2023-07-20T02:33:26;7.30;;;2.10;;
81811;SDS011;71243;51.848;5.768;2023-07-20T02:35:51;6.53;;;1.80;;
81811;SDS011;71243;51.848;5.768;2023-07-20T02:38:16;5.60;;;1.90;;
81811;SDS011;71243;51.848;5.768;2023-07-20T02:40:41;6.83;;;2.00;;
81811;SDS011;71243;51.848;5.768;2023-07-20T02:43:06;5.47;;;2.00;;
81811;SDS011;71243;51.848;5.768;2023-07-20T02:45:32;6.70;;;2.20;;
81811;SDS011;71243;51.848;5.768;2023-07-20T02:47:57;6.87;;;2.07;;
81811;SDS011;71243;51.848;5.768;2023-07-20T02:50:22;5.70;;;2.00;;
81811;SDS011;71243;51.848;5.768;2023-07-20T02:52:47;4.83;;;1.70;;
81811;SDS011;71243;51.848;5.768;2023-07-20T02:55:13;5.20;;;1.73;;
81811;SDS011;71243;51.848;5.768;2023-07-20T02:57:38;5.72;;;2.15;;
81811;SDS011;71243;51.848;5.768;2023-07-20T03:00:03;5.33;;;2.00;;
81811;SDS011;71243;51.848;5.768;2023-07-20T03:02:29;5.60;;;1.85;;
81811;SDS011;71243;51.848;5.768;2023-07-20T03:04:55;5.47;;;1.90;;
81811;SDS011;71243;51.848;5.768;2023-07-20T03:07:20;6.30;;;2.00;;
81811;SDS011;71243;51.848;5.768;2023-07-20T03:09:45;6.00;;;2.07;;
81811;SDS011;71243;51.848;5.768;2023-07-20T03:12:10;6.40;;;2.27;;
81811;SDS011;71243;51.848;5.768;2023-07-20T03:14:35;5.47;;;2.00;;
81811;SDS011;71243;51.848;5.768;2023-07-20T03:17:01;5.80;;;1.97;;
81811;SDS011;71243;51.848;5.768;2023-07-20T03:19:26;5.40;;;1.80;;
81811;SDS011;71243;51.848;5.768;2023-07-20T03:21:51;5.47;;;2.10;;
81811;SDS011;71243;51.848;5.768;2023-07-20T03:24:16;5.87;;;2.00;;
81811;SDS011;71243;51.848;5.768;2023-07-20T03:26:41;5.00;;;1.80;;
81811;SDS011;71243;51.848;5.768;2023-07-20T03:29:07;6.33;;;2.07;;
81811;SDS011;71243;51.848;5.768;2023-07-20T03:31:32;5.53;;;1.90;;
81811;SDS011;71243;51.848;5.768;2023-07-20T03:33:57;5.30;;;2.00;;
81811;SDS011;71243;51.848;5.768;2023-07-20T03:36:23;5.53;;;2.13;;
81811;SDS011;71243;51.848;5.768;2023-07-20T03:38:48;5.20;;;1.95;;
81811;SDS011;71243;51.848;5.768;2023-07-20T03:41:13;5.00;;;1.80;;
81811;SDS011;71243;51.848;5.768;2023-07-20T03:43:38;5.13;;;1.93;;
81811;SDS011;71243;51.848;5.768;2023-07-20T03:46:04;5.40;;;2.00;;
81811;SDS011;71243;51.848;5.768;2023-07-20T03:48:29;5.20;;;1.90;;
81811;SDS011;71243;51.848;5.768;2023-07-20T03:50:54;5.95;;;2.33;;
81811;SDS011;71243;51.848;5.768;2023-07-20T03:53:19;6.70;;;2.43;;
81811;SDS011;71243;51.848;5.768;2023-07-20T03:55:45;5.95;;;2.55;;
81811;SDS011;71243;51.848;5.768;2023-07-20T03:58:11;6.63;;;2.70;;
81811;SDS011;71243;51.848;5.768;2023-07-20T04:00:37;6.65;;;2.47;;
81811;SDS011;71243;51.848;5.768;2023-07-20T04:03:02;6.30;;;3.00;;
81811;SDS011;71243;51.848;5.768;2023-07-20T04:05:28;9.18;;;3.25;;
81811;SDS011;71243;51.848;5.768;2023-07-20T04:07:53;6.80;;;2.38;;
81811;SDS011;71243;51.848;5.768;2023-07-20T04:10:18;6.87;;;2.83;;
81811;SDS011;71243;51.848;5.768;2023-07-20T04:12:45;6.78;;;3.17;;
81811;SDS011;71243;51.848;5.768;2023-07-20T04:15:10;6.85;;;2.60;;
81811;SDS011;71243;51.848;5.768;2023-07-20T04:17:36;6.95;;;2.88;;
81811;SDS011;71243;51.848;5.768;2023-07-20T04:20:01;9.23;;;3.30;;
81811;SDS011;71243;51.848;5.768;2023-07-20T04:22:27;7.45;;;2.95;;
81811;SDS011;71243;51.848;5.768;2023-07-20T04:24:53;7.88;;;3.30;;
81811;SDS011;71243;51.848;5.768;2023-07-20T04:27:18;8.07;;;3.25;;
81811;SDS011;71243;51.848;5.768;2023-07-20T04:29:43;7.80;;;3.23;;
81811;SDS011;71243;51.848;5.768;2023-07-20T04:32:09;7.40;;;3.30;;
81811;SDS011;71243;51.848;5.768;2023-07-20T04:34:34;10.77;;;3.60;;
81811;SDS011;71243;51.848;5.768;2023-07-20T04:36:59;7.27;;;2.90;;
81811;SDS011;71243;51.848;5.768;2023-07-20T04:39:24;6.97;;;3.40;;
81811;SDS011;71243;51.848;5.768;2023-07-20T04:41:49;6.93;;;3.43;;
81811;SDS011;71243;51.848;5.768;2023-07-20T04:44:15;9.03;;;3.10;;
81811;SDS011;71243;51.848;5.768;2023-07-20T04:46:40;7.60;;;3.30;;
81811;SDS011;71243;51.848;5.768;2023-07-20T04:49:05;7.10;;;3.00;;
81811;SDS011;71243;51.848;5.768;2023-07-20T04:51:30;7.22;;;3.30;;
81811;SDS011;71243;51.848;5.768;2023-07-20T04:53:56;7.38;;;3.20;;
81811;SDS011;71243;51.848;5.768;2023-07-20T04:56:21;8.73;;;3.57;;
81811;SDS011;71243;51.848;5.768;2023-07-20T04:58:46;7.30;;;2.97;;
81811;SDS011;71243;51.848;5.768;2023-07-20T05:01:12;7.53;;;3.23;;
81811;SDS011;71243;51.848;5.768;2023-07-20T05:03:37;7.60;;;3.67;;
81811;SDS011;71243;51.848;5.768;2023-07-20T05:06:02;7.83;;;3.53;;
81811;SDS011;71243;51.848;5.768;2023-07-20T05:08:27;7.22;;;3.17;;
81811;SDS011;71243;51.848;5.768;2023-07-20T05:10:52;8.20;;;3.50;;
81811;SDS011;71243;51.848;5.768;2023-07-20T05:13:18;7.33;;;3.20;;
81811;SDS011;71243;51.848;5.768;2023-07-20T05:15:43;7.70;;;3.47;;
81811;SDS011;71243;51.848;5.768;2023-07-20T05:18:08;7.60;;;3.13;;
81811;SDS011;71243;51.848;5.768;2023-07-20T05:20:34;7.85;;;3.60;;
81811;SDS011;71243;51.848;5.768;2023-07-20T05:22:59;7.50;;;3.05;;
81811;SDS011;71243;51.848;5.768;2023-07-20T05:25:25;6.78;;;2.67;;
81811;SDS011;71243;51.848;5.768;2023-07-20T05:27:51;6.43;;;2.80;;
81811;SDS011;71243;51.848;5.768;2023-07-20T05:30:16;7.35;;;3.22;;
81811;SDS011;71243;51.848;5.768;2023-07-20T05:32:42;7.22;;;2.78;;
81811;SDS011;71243;51.848;5.768;2023-07-20T05:35:07;9.63;;;3.60;;
81811;SDS011;71243;51.848;5.768;2023-07-20T05:37:33;7.50;;;2.90;;
81811;SDS011;71243;51.848;5.768;2023-07-20T05:39:58;6.97;;;2.90;;
81811;SDS011;71243;51.848;5.768;2023-07-20T05:42:23;6.13;;;2.57;;
81811;SDS011;71243;51.848;5.768;2023-07-20T05:44:49;7.75;;;3.03;;
81811;SDS011;71243;51.848;5.768;2023-07-20T05:47:14;6.80;;;2.77;;
81811;SDS011;71243;51.848;5.768;2023-07-20T05:49:39;6.77;;;2.80;;
81811;SDS011;71243;51.848;5.768;2023-07-20T05:52:04;5.70;;;2.40;;
81811;SDS011;71243;51.848;5.768;2023-07-20T05:54:30;6.80;;;2.50;;
81811;SDS011;71243;51.848;5.768;2023-07-20T05:56:55;6.00;;;2.40;;
81811;SDS011;71243;51.848;5.768;2023-07-20T05:59:20;6.33;;;2.23;;
81811;SDS011;71243;51.848;5.768;2023-07-20T06:01:46;5.97;;;2.10;;
81811;SDS011;71243;51.848;5.768;2023-07-20T06:04:11;6.55;;;1.80;;
81811;SDS011;71243;51.848;5.768;2023-07-20T06:06:36;5.37;;;1.83;;
81811;SDS011;71243;51.848;5.768;2023-07-20T06:09:01;4.43;;;1.60;;
81811;SDS011;71243;51.848;5.768;2023-07-20T06:11:27;8.10;;;2.10;;
81811;SDS011;71243;51.848;5.768;2023-07-20T06:13:52;5.50;;;2.30;;
81811;SDS011;71243;51.848;5.768;2023-07-20T06:16:17;6.90;;;2.07;;
81811;SDS011;71243;51.848;5.768;2023-07-20T06:18:43;4.27;;;1.40;;
81811;SDS011;71243;51.848;5.768;2023-07-20T06:21:08;4.83;;;1.37;;
81811;SDS011;71243;51.848;5.768;2023-07-20T06:23:33;4.40;;;1.13;;
81811;SDS011;71243;51.848;5.768;2023-07-20T06:25:58;4.37;;;1.10;;
81811;SDS011;71243;51.848;5.768;2023-07-20T06:28:23;5.40;;;1.37;;
81811;SDS011;71243;51.848;5.768;2023-07-20T06:30:49;3.77;;;1.17;;
81811;SDS011;71243;51.848;5.768;2023-07-20T06:33:14;4.73;;;1.20;;
81811;SDS011;71243;51.848;5.768;2023-07-20T06:35:41;3.60;;;0.93;;
81811;SDS011;71243;51.848;5.768;2023-07-20T06:38:06;4.03;;;1.13;;
81811;SDS011;71243;51.848;5.768;2023-07-20T06:40:32;3.40;;;1.20;;
81811;SDS011;71243;51.848;5.768;2023-07-20T06:42:57;3.40;;;1.00;;
81811;SDS011;71243;51.848;5.768;2023-07-20T06:45:22;3.55;;;1.15;;
81811;SDS011;71243;51.848;5.768;2023-07-20T06:47:47;4.20;;;2.28;;
81811;SDS011;71243;51.848;5.768;2023-07-20T06:50:13;6.30;;;1.17;;
81811;SDS011;71243;51.848;5.768;2023-07-20T06:52:38;5.30;;;1.30;;
81811;SDS011;71243;51.848;5.768;2023-07-20T06:55:03;3.67;;;0.97;;
81811;SDS011;71243;51.848;5.768;2023-07-20T06:57:29;2.80;;;0.90;;
81811;SDS011;71243;51.848;5.768;2023-07-20T06:59:54;3.67;;;1.10;;
81811;SDS011;71243;51.848;5.768;2023-07-20T07:02:19;2.93;;;1.00;;
81811;SDS011;71243;51.848;5.768;2023-07-20T07:04:45;3.70;;;0.90;;
81811;SDS011;71243;51.848;5.768;2023-07-20T07:07:10;3.50;;;1.10;;
81811;SDS011;71243;51.848;5.768;2023-07-20T07:09:35;5.23;;;1.63;;
81811;SDS011;71243;51.848;5.768;2023-07-20T07:12:00;5.07;;;1.80;;
81811;SDS011;71243;51.848;5.768;2023-07-20T07:14:26;6.57;;;1.92;;
81811;SDS011;71243;51.848;5.768;2023-07-20T07:16:51;5.68;;;2.08;;
81811;SDS011;71243;51.848;5.768;2023-07-20T07:19:16;4.77;;;1.67;;
81811;SDS011;71243;51.848;5.768;2023-07-20T07:21:42;6.07;;;1.90;;
81811;SDS011;71243;51.848;5.768;2023-07-20T07:24:07;4.72;;;1.30;;
81811;SDS011;71243;51.848;5.768;2023-07-20T07:26:32;5.03;;;1.30;;
81811;SDS011;71243;51.848;5.768;2023-07-20T07:28:58;3.67;;;1.10;;
81811;SDS011;71243;51.848;5.768;2023-07-20T07:31:24;4.72;;;1.30;;
81811;SDS011;71243;51.848;5.768;2023-07-20T07:33:50;3.22;;;1.00;;
81811;SDS011;71243;51.848;5.768;2023-07-20T07:36:15;3.80;;;1.10;;
81811;SDS011;71243;51.848;5.768;2023-07-20T07:38:40;5.83;;;1.47;;
81811;SDS011;71243;51.848;5.768;2023-07-20T07:41:05;3.63;;;1.20;;
81811;SDS011;71243;51.848;5.768;2023-07-20T07:43:30;4.57;;;1.17;;
81811;SDS011;71243;51.848;5.768;2023-07-20T07:45:56;3.63;;;1.10;;
81811;SDS011;71243;51.848;5.768;2023-07-20T07:48:21;4.13;;;1.17;;
81811;SDS011;71243;51.848;5.768;2023-07-20T07:50:46;4.55;;;1.30;;
81811;SDS011;71243;51.848;5.768;2023-07-20T07:53:11;3.53;;;1.20;;
81811;SDS011;71243;51.848;5.768;2023-07-20T07:55:37;3.63;;;0.93;;
81811;SDS011;71243;51.848;5.768;2023-07-20T07:58:02;3.50;;;1.20;;
81811;SDS011;71243;51.848;5.768;2023-07-20T08:00:27;3.03;;;1.13;;
81811;SDS011;71243;51.848;5.768;2023-07-20T08:02:52;4.22;;;1.10;;
81811;SDS011;71243;51.848;5.768;2023-07-20T08:05:18;3.90;;;1.13;;
81811;SDS011;71243;51.848;5.768;2023-07-20T08:07:43;3.47;;;1.00;;
81811;SDS011;71243;51.848;5.768;2023-07-20T08:10:08;3.05;;;1.00;;
81811;SDS011;71243;51.848;5.768;2023-07-20T08:12:34;3.65;;;1.05;;
81811;SDS011;71243;51.848;5.768;2023-07-20T08:14:59;2.87;;;0.93;;
81811;SDS011;71243;51.848;5.768;2023-07-20T08:17:25;4.40;;;1.00;;
81811;SDS011;71243;51.848;5.768;2023-07-20T08:19:50;3.80;;;1.10;;
81811;SDS011;71243;51.848;5.768;2023-07-20T08:22:15;4.30;;;1.40;;
81811;SDS011;71243;51.848;5.768;2023-07-20T08:24:43;4.40;;;1.23;;
81811;SDS011;71243;51.848;5.768;2023-07-20T08:27:09;3.35;;;1.00;;
81811;SDS011;71243;51.848;5.768;2023-07-20T08:29:35;4.40;;;1.10;;
81811;SDS011;71243;51.848;5.768;2023-07-20T08:32:00;2.65;;;0.90;;
81811;SDS011;71243;51.848;5.768;2023-07-20T08:34:26;2.25;;;0.80;;
81811;SDS011;71243;51.848;5.768;2023-07-20T08:36:52;2.92;;;0.80;;
81811;SDS011;71243;51.848;5.768;2023-07-20T08:39:17;3.13;;;1.00;;
81811;SDS011;71243;51.848;5.768;2023-07-20T08:41:42;3.35;;;1.10;;
81811;SDS011;71243;51.848;5.768;2023-07-20T08:44:08;3.05;;;0.90;;
81811;SDS011;71243;51.848;5.768;2023-07-20T08:46:35;4.88;;;1.02;;
81811;SDS011;71243;51.848;5.768;2023-07-20T08:49:03;4.43;;;1.35;;
81811;SDS011;71243;51.848;5.768;2023-07-20T08:51:29;4.95;;;1.00;;
81811;SDS011;71243;51.848;5.768;2023-07-20T08:53:55;3.58;;;1.05;;
81811;SDS011;71243;51.848;5.768;2023-07-20T08:56:21;3.95;;;0.98;;
81811;SDS011;71243;51.848;5.768;2023-07-20T08:58:49;3.25;;;1.00;;
81811;SDS011;71243;51.848;5.768;2023-07-20T09:01:18;2.92;;;0.85;;
81811;SDS011;71243;51.848;5.768;2023-07-20T09:03:44;3.55;;;1.30;;
81811;SDS011;71243;51.848;5.768;2023-07-20T09:06:10;2.78;;;1.10;;
81811;SDS011;71243;51.848;5.768;2023-07-20T09:08:39;3.58;;;1.13;;
81811;SDS011;71243;51.848;5.768;2023-07-20T09:11:05;3.35;;;1.05;;
81811;SDS011;71243;51.848;5.768;2023-07-20T09:13:32;2.72;;;0.88;;
81811;SDS011;71243;51.848;5.768;2023-07-20T09:15:57;2.47;;;0.90;;
81811;SDS011;71243;51.848;5.768;2023-07-20T09:18:27;3.97;;;1.10;;
81811;SDS011;71243;51.848;5.768;2023-07-20T09:21:04;2.35;;;0.80;;
81811;SDS011;71243;51.848;5.768;2023-07-20T09:23:33;2.92;;;0.82;;
81811;SDS011;71243;51.848;5.768;2023-07-20T09:26:14;2.38;;;0.80;;
81811;SDS011;71243;51.848;5.768;2023-07-20T09:28:43;2.75;;;1.00;;
81811;SDS011;71243;51.848;5.768;2023-07-20T09:31:16;3.08;;;0.90;;
81811;SDS011;71243;51.848;5.768;2023-07-20T09:33:42;3.25;;;0.90;;
81811;SDS011;71243;51.848;5.768;2023-07-20T09:36:09;3.87;;;1.20;;
81811;SDS011;71243;51.848;5.768;2023-07-20T09:38:34;2.85;;;1.00;;
81811;SDS011;71243;51.848;5.768;2023-07-20T09:40:59;4.30;;;1.05;;
81811;SDS011;71243;51.848;5.768;2023-07-20T09:43:25;3.63;;;0.90;;
81811;SDS011;71243;51.848;5.768;2023-07-20T09:45:57;3.05;;;0.90;;
81811;SDS011;71243;51.848;5.768;2023-07-20T09:48:23;3.75;;;1.08;;
81811;SDS011;71243;51.848;5.768;2023-07-20T09:50:49;2.85;;;0.98;;
81811;SDS011;71243;51.848;5.768;2023-07-20T09:53:16;2.72;;;0.82;;
81811;SDS011;71243;51.848;5.768;2023-07-20T09:55:43;2.47;;;0.95;;
81811;SDS011;71243;51.848;5.768;2023-07-20T09:58:09;2.83;;;1.00;;
81811;SDS011;71243;51.848;5.768;2023-07-20T10:00:35;4.70;;;1.20;;
81811;SDS011;71243;51.848;5.768;2023-07-20T10:03:02;2.90;;;1.30;;
81811;SDS011;71243;51.848;5.768;2023-07-20T10:05:29;3.80;;;0.98;;
81811;SDS011;71243;51.848;5.768;2023-07-20T10:08:00;3.70;;;1.30;;
81811;SDS011;71243;51.848;5.768;2023-07-20T10:10:26;3.90;;;1.00;;
81811;SDS011;71243;51.848;5.768;2023-07-20T10:12:52;5.03;;;1.45;;
81811;SDS011;71243;51.848;5.768;2023-07-20T10:15:19;4.22;;;1.30;;
81811;SDS011;71243;51.848;5.768;2023-07-20T10:18:09;3.67;;;1.23;;
81811;SDS011;71243;51.848;5.768;2023-07-20T10:20:48;3.90;;;1.20;;
81811;SDS011;71243;51.848;5.768;2023-07-20T10:23:16;4.80;;;1.17;;
81811;SDS011;71243;51.848;5.768;2023-07-20T10:25:42;4.68;;;1.35;;
81811;SDS011;71243;51.848;5.768;2023-07-20T10:28:08;4.93;;;1.30;;
81811;SDS011;71243;51.848;5.768;2023-07-20T10:30:35;4.32;;;1.20;;
81811;SDS011;71243;51.848;5.768;2023-07-20T10:33:04;4.00;;;1.30;;
81811;SDS011;71243;51.848;5.768;2023-07-20T10:35:30;3.42;;;1.00;;
81811;SDS011;71243;51.848;5.768;2023-07-20T10:38:02;4.07;;;1.30;;
81811;SDS011;71243;51.848;5.768;2023-07-20T10:40:29;4.05;;;1.20;;
81811;SDS011;71243;51.848;5.768;2023-07-20T10:42:59;2.67;;;1.00;;
81811;SDS011;71243;51.848;5.768;2023-07-20T10:48:02;4.18;;;1.10;;
81811;SDS011;71243;51.848;5.768;2023-07-20T10:50:28;3.92;;;1.30;;
81811;SDS011;71243;51.848;5.768;2023-07-20T10:53:13;3.88;;;1.20;;
81811;SDS011;71243;51.848;5.768;2023-07-20T10:55:41;3.17;;;1.00;;
81811;SDS011;71243;51.848;5.768;2023-07-20T10:58:11;2.28;;;0.88;;
81811;SDS011;71243;51.848;5.768;2023-07-20T11:00:38;3.65;;;1.65;;
81811;SDS011;71243;51.848;5.768;2023-07-20T11:03:30;5.30;;;1.48;;
81811;SDS011;71243;51.848;5.768;2023-07-20T11:05:57;3.95;;;1.30;;
81811;SDS011;71243;51.848;5.768;2023-07-20T11:08:41;2.83;;;0.90;;
81811;SDS011;71243;51.848;5.768;2023-07-20T11:11:26;2.92;;;1.02;;
81811;SDS011;71243;51.848;5.768;2023-07-20T11:14:00;3.38;;;1.20;;
81811;SDS011;71243;51.848;5.768;2023-07-20T11:18:58;4.05;;;1.23;;
81811;SDS011;71243;51.848;5.768;2023-07-20T11:21:24;4.97;;;1.25;;
81811;SDS011;71243;51.848;5.768;2023-07-20T11:23:49;3.85;;;1.10;;
81811;SDS011;71243;51.848;5.768;2023-07-20T11:26:16;4.50;;;1.20;;
81811;SDS011;71243;51.848;5.768;2023-07-20T11:28:42;3.93;;;1.10;;
81811;SDS011;71243;51.848;5.768;2023-07-20T11:31:07;4.37;;;1.43;;
81811;SDS011;71243;51.848;5.768;2023-07-20T11:33:32;4.90;;;1.27;;
81811;SDS011;71243;51.848;5.768;2023-07-20T11:35:57;4.93;;;1.13;;
81811;SDS011;71243;51.848;5.768;2023-07-20T11:38:23;5.27;;;1.50;;
81811;SDS011;71243;51.848;5.768;2023-07-20T11:40:49;4.00;;;1.20;;
81811;SDS011;71243;51.848;5.768;2023-07-20T11:43:14;5.00;;;1.40;;
81811;SDS011;71243;51.848;5.768;2023-07-20T11:45:39;4.07;;;1.33;;
81811;SDS011;71243;51.848;5.768;2023-07-20T11:48:05;3.85;;;1.30;;
81811;SDS011;71243;51.848;5.768;2023-07-20T11:50:30;6.50;;;1.58;;
81811;SDS011;71243;51.848;5.768;2023-07-20T11:52:55;4.03;;;1.47;;
81811;SDS011;71243;51.848;5.768;2023-07-20T11:55:21;2.78;;;1.20;;
81811;SDS011;71243;51.848;5.768;2023-07-20T11:58:05;4.60;;;1.45;;
81811;SDS011;71243;51.848;5.768;2023-07-20T12:00:32;5.15;;;1.67;;
81811;SDS011;71243;51.848;5.768;2023-07-20T12:02:58;4.82;;;1.27;;
81811;SDS011;71243;51.848;5.768;2023-07-20T12:05:23;5.03;;;1.60;;
81811;SDS011;71243;51.848;5.768;2023-07-20T12:07:49;5.55;;;1.70;;
81811;SDS011;71243;51.848;5.768;2023-07-20T12:10:15;5.45;;;1.42;;
81811;SDS011;71243;51.848;5.768;2023-07-20T12:12:41;5.75;;;1.70;;
81811;SDS011;71243;51.848;5.768;2023-07-20T12:17:44;4.28;;;1.60;;
81811;SDS011;71243;51.848;5.768;2023-07-20T12:20:11;5.05;;;1.85;;
81811;SDS011;71243;51.848;5.768;2023-07-20T12:22:40;5.85;;;2.17;;
81811;SDS011;71243;51.848;5.768;2023-07-20T12:25:06;5.20;;;1.67;;
81811;SDS011;71243;51.848;5.768;2023-07-20T12:27:31;4.43;;;1.42;;
81811;SDS011;71243;51.848;5.768;2023-07-20T12:29:56;4.03;;;1.52;;
81811;SDS011;71243;51.848;5.768;2023-07-20T12:32:22;4.50;;;1.10;;
81811;SDS011;71243;51.848;5.768;2023-07-20T12:34:47;3.78;;;1.15;;
81811;SDS011;71243;51.848;5.768;2023-07-20T12:37:12;3.83;;;1.30;;
81811;SDS011;71243;51.848;5.768;2023-07-20T12:39:37;4.93;;;1.40;;
81811;SDS011;71243;51.848;5.768;2023-07-20T12:42:03;4.37;;;1.47;;
81811;SDS011;71243;51.848;5.768;2023-07-20T12:44:28;3.95;;;1.33;;
81811;SDS011;71243;51.848;5.768;2023-07-20T12:46:53;3.43;;;1.20;;
81811;SDS011;71243;51.848;5.768;2023-07-20T12:49:18;4.97;;;1.60;;
81811;SDS011;71243;51.848;5.768;2023-07-20T12:51:44;5.90;;;1.70;;
81811;SDS011;71243;51.848;5.768;2023-07-20T12:54:09;4.63;;;1.60;;
81811;SDS011;71243;51.848;5.768;2023-07-20T12:56:34;4.30;;;1.50;;
81811;SDS011;71243;51.848;5.768;2023-07-20T12:58:59;5.20;;;1.63;;
81811;SDS011;71243;51.848;5.768;2023-07-20T13:01:24;5.07;;;1.80;;
81811;SDS011;71243;51.848;5.768;2023-07-20T13:03:50;5.40;;;2.00;;
81811;SDS011;71243;51.848;5.768;2023-07-20T13:06:15;7.40;;;2.30;;
81811;SDS011;71243;51.848;5.768;2023-07-20T13:08:40;5.17;;;1.77;;
81811;SDS011;71243;51.848;5.768;2023-07-20T13:11:05;4.43;;;1.70;;
81811;SDS011;71243;51.848;5.768;2023-07-20T13:13:30;5.63;;;1.50;;
81811;SDS011;71243;51.848;5.768;2023-07-20T13:15:56;4.77;;;1.50;;
81811;SDS011;71243;51.848;5.768;2023-07-20T13:18:21;4.60;;;1.50;;
81811;SDS011;71243;51.848;5.768;2023-07-20T13:20:46;3.70;;;1.23;;
81811;SDS011;71243;51.848;5.768;2023-07-20T13:23:11;5.23;;;1.70;;
81811;SDS011;71243;51.848;5.768;2023-07-20T13:25:37;4.30;;;1.70;;
81811;SDS011;71243;51.848;5.768;2023-07-20T13:28:02;4.87;;;1.50;;
81811;SDS011;71243;51.848;5.768;2023-07-20T13:30:27;4.78;;;1.40;;
81811;SDS011;71243;51.848;5.768;2023-07-20T13:32:52;4.50;;;1.60;;
81811;SDS011;71243;51.848;5.768;2023-07-20T13:35:18;4.97;;;1.90;;
81811;SDS011;71243;51.848;5.768;2023-07-20T13:37:43;3.90;;;1.33;;
81811;SDS011;71243;51.848;5.768;2023-07-20T13:40:08;4.60;;;1.77;;
81811;SDS011;71243;51.848;5.768;2023-07-20T13:42:34;5.55;;;2.03;;
81811;SDS011;71243;51.848;5.768;2023-07-20T13:44:59;5.70;;;2.03;;
81811;SDS011;71243;51.848;5.768;2023-07-20T13:47:24;5.28;;;1.85;;
81811;SDS011;71243;51.848;5.768;2023-07-20T13:49:51;5.90;;;1.70;;
81811;SDS011;71243;51.848;5.768;2023-07-20T13:52:16;4.77;;;1.60;;
81811;SDS011;71243;51.848;5.768;2023-07-20T13:54:41;5.07;;;1.80;;
81811;SDS011;71243;51.848;5.768;2023-07-20T13:57:06;4.45;;;1.70;;
81811;SDS011;71243;51.848;5.768;2023-07-20T13:59:32;6.15;;;2.10;;
81811;SDS011;71243;51.848;5.768;2023-07-20T14:01:57;7.20;;;2.00;;
81811;SDS011;71243;51.848;5.768;2023-07-20T14:04:22;4.22;;;1.63;;
81811;SDS011;71243;51.848;5.768;2023-07-20T14:06:47;4.40;;;1.93;;
81811;SDS011;71243;51.848;5.768;2023-07-20T14:09:13;4.10;;;1.50;;
81811;SDS011;71243;51.848;5.768;2023-07-20T14:11:38;4.38;;;1.50;;
81811;SDS011;71243;51.848;5.768;2023-07-20T14:14:03;5.27;;;1.50;;
81811;SDS011;71243;51.848;5.768;2023-07-20T14:16:29;4.03;;;1.63;;
81811;SDS011;71243;51.848;5.768;2023-07-20T14:18:54;4.15;;;1.33;;
81811;SDS011;71243;51.848;5.768;2023-07-20T14:21:20;4.13;;;1.50;;
81811;SDS011;71243;51.848;5.768;2023-07-20T14:23:46;4.03;;;1.45;;
81811;SDS011;71243;51.848;5.768;2023-07-20T14:26:12;5.93;;;1.50;;
81811;SDS011;71243;51.848;5.768;2023-07-20T14:28:38;4.47;;;1.90;;
81811;SDS011;71243;51.848;5.768;2023-07-20T14:31:03;4.88;;;1.52;;
81811;SDS011;71243;51.848;5.768;2023-07-20T14:33:28;4.40;;;1.60;;
81811;SDS011;71243;51.848;5.768;2023-07-20T14:35:54;4.60;;;1.33;;
81811;SDS011;71243;51.848;5.768;2023-07-20T14:38:19;4.70;;;1.70;;
81811;SDS011;71243;51.848;5.768;2023-07-20T14:40:44;4.68;;;1.50;;
81811;SDS011;71243;51.848;5.768;2023-07-20T14:43:09;4.40;;;1.50;;
81811;SDS011;71243;51.848;5.768;2023-07-20T14:45:35;5.22;;;1.60;;
81811;SDS011;71243;51.848;5.768;2023-07-20T14:48:00;3.83;;;1.30;;
81811;SDS011;71243;51.848;5.768;2023-07-20T14:50:25;5.07;;;1.40;;
81811;SDS011;71243;51.848;5.768;2023-07-20T14:52:50;4.57;;;1.30;;
81811;SDS011;71243;51.848;5.768;2023-07-20T14:55:16;4.70;;;1.50;;